sensor_id;sensor_type;location;lat;lon;timestamp;P1;durP1;ratioP1;P2;durP2;ratioP2
66680;SDS011;53575;51.366;12.350;2022-09-27T00:01:05;4.13;;;1.20;;
66680;SDS011;53575;51.366;12.350;2022-09-27T00:03:33;1.77;;;1.00;;
66680;SDS011;53575;51.366;12.350;2022-09-27T00:05:59;2.83;;;1.10;;
66680;SDS011;53575;51.366;12.350;2022-09-27T00:08:33;4.13;;;1.40;;
66680;SDS011;53575;51.366;12.350;2022-09-27T00:11:00;2.03;;;1.35;;
66680;SDS011;53575;51.366;12.350;2022-09-27T00:13:26;1.40;;;1.20;;
66680;SDS011;53575;51.366;12.350;2022-09-27T00:15:59;3.67;;;1.10;;
66680;SDS011;53575;51.366;12.350;2022-09-27T00:18:27;1.83;;;1.17;;
66680;SDS011;53575;51.366;12.350;2022-09-27T00:20:52;2.17;;;1.17;;
66680;SDS011;53575;51.366;12.350;2022-09-27T00:23:18;3.17;;;1.40;;
66680;SDS011;53575;51.366;12.350;2022-09-27T00:26:05;1.33;;;1.15;;
66680;SDS011;53575;51.366;12.350;2022-09-27T00:28:30;1.92;;;1.33;;
66680;SDS011;53575;51.366;12.350;2022-09-27T00:30:56;2.65;;;1.35;;
66680;SDS011;53575;51.366;12.350;2022-09-27T00:33:22;1.98;;;1.33;;
66680;SDS011;53575;51.366;12.350;2022-09-27T00:35:47;5.85;;;1.92;;
66680;SDS011;53575;51.366;12.350;2022-09-27T00:38:13;2.25;;;1.17;;
66680;SDS011;53575;51.366;12.350;2022-09-27T00:40:39;1.60;;;1.40;;
66680;SDS011;53575;51.366;12.350;2022-09-27T00:43:12;4.07;;;1.40;;
66680;SDS011;53575;51.366;12.350;2022-09-27T00:45:40;4.97;;;1.50;;
66680;SDS011;53575;51.366;12.350;2022-09-27T00:48:06;2.85;;;1.27;;
66680;SDS011;53575;51.366;12.350;2022-09-27T00:50:33;1.73;;;1.38;;
66680;SDS011;53575;51.366;12.350;2022-09-27T00:53:20;3.38;;;1.67;;
66680;SDS011;53575;51.366;12.350;2022-09-27T00:55:54;1.83;;;1.30;;
66680;SDS011;53575;51.366;12.350;2022-09-27T00:58:35;2.78;;;1.40;;
66680;SDS011;53575;51.366;12.350;2022-09-27T01:01:04;2.20;;;1.23;;
66680;SDS011;53575;51.366;12.350;2022-09-27T01:06:27;2.53;;;1.20;;
66680;SDS011;53575;51.366;12.350;2022-09-27T01:08:53;2.10;;;1.30;;
66680;SDS011;53575;51.366;12.350;2022-09-27T01:11:34;2.08;;;1.40;;
66680;SDS011;53575;51.366;12.350;2022-09-27T01:14:27;2.88;;;1.13;;
66680;SDS011;53575;51.366;12.350;2022-09-27T01:17:09;1.27;;;1.17;;
66680;SDS011;53575;51.366;12.350;2022-09-27T01:36:35;3.38;;;1.80;;
66680;SDS011;53575;51.366;12.350;2022-09-27T01:41:52;1.80;;;1.52;;
66680;SDS011;53575;51.366;12.350;2022-09-27T01:46:52;2.28;;;1.27;;
66680;SDS011;53575;51.366;12.350;2022-09-27T01:49:32;2.17;;;1.38;;
66680;SDS011;53575;51.366;12.350;2022-09-27T01:52:04;1.42;;;1.33;;
66680;SDS011;53575;51.366;12.350;2022-09-27T01:54:35;1.38;;;1.25;;
66680;SDS011;53575;51.366;12.350;2022-09-27T01:57:04;1.98;;;1.30;;
66680;SDS011;53575;51.366;12.350;2022-09-27T01:59:35;1.30;;;1.07;;
66680;SDS011;53575;51.366;12.350;2022-09-27T02:02:06;1.58;;;1.20;;
66680;SDS011;53575;51.366;12.350;2022-09-27T02:04:33;2.60;;;1.23;;
66680;SDS011;53575;51.366;12.350;2022-09-27T02:07:05;2.25;;;1.13;;
66680;SDS011;53575;51.366;12.350;2022-09-27T02:09:57;3.80;;;1.48;;
66680;SDS011;53575;51.366;12.350;2022-09-27T02:12:32;1.30;;;1.08;;
66680;SDS011;53575;51.366;12.350;2022-09-27T02:15:05;1.00;;;0.90;;
66680;SDS011;53575;51.366;12.350;2022-09-27T02:17:46;2.33;;;1.02;;
66680;SDS011;53575;51.366;12.350;2022-09-27T02:20:15;1.33;;;0.90;;
66680;SDS011;53575;51.366;12.350;2022-09-27T02:25:45;1.92;;;0.80;;
66680;SDS011;53575;51.366;12.350;2022-09-27T02:28:37;2.85;;;1.20;;
66680;SDS011;53575;51.366;12.350;2022-09-27T02:31:06;2.05;;;1.30;;
66680;SDS011;53575;51.366;12.350;2022-09-27T02:33:41;2.83;;;1.10;;
66680;SDS011;53575;51.366;12.350;2022-09-27T02:36:11;1.90;;;1.40;;
66680;SDS011;53575;51.366;12.350;2022-09-27T02:38:36;2.15;;;1.10;;
66680;SDS011;53575;51.366;12.350;2022-09-27T02:41:02;1.30;;;1.05;;
66680;SDS011;53575;51.366;12.350;2022-09-27T02:43:28;2.80;;;1.10;;
66680;SDS011;53575;51.366;12.350;2022-09-27T02:54:25;2.15;;;1.27;;
66680;SDS011;53575;51.366;12.350;2022-09-27T03:02:22;1.70;;;1.17;;
66680;SDS011;53575;51.366;12.350;2022-09-27T03:04:53;2.25;;;1.20;;
66680;SDS011;53575;51.366;12.350;2022-09-27T03:07:22;2.00;;;1.10;;
66680;SDS011;53575;51.366;12.350;2022-09-27T03:09:49;1.35;;;1.15;;
66680;SDS011;53575;51.366;12.350;2022-09-27T03:12:17;2.13;;;0.95;;
66680;SDS011;53575;51.366;12.350;2022-09-27T03:14:55;1.02;;;0.85;;
66680;SDS011;53575;51.366;12.350;2022-09-27T03:17:22;1.17;;;1.05;;
66680;SDS011;53575;51.366;12.350;2022-09-27T03:19:48;2.78;;;1.55;;
66680;SDS011;53575;51.366;12.350;2022-09-27T03:22:14;1.02;;;0.80;;
66680;SDS011;53575;51.366;12.350;2022-09-27T03:24:39;1.17;;;1.05;;
66680;SDS011;53575;51.366;12.350;2022-09-27T03:27:06;2.13;;;1.70;;
66680;SDS011;53575;51.366;12.350;2022-09-27T03:29:31;2.55;;;1.80;;
66680;SDS011;53575;51.366;12.350;2022-09-27T03:31:57;1.40;;;0.93;;
66680;SDS011;53575;51.366;12.350;2022-09-27T03:34:22;0.90;;;0.90;;
66680;SDS011;53575;51.366;12.350;2022-09-27T03:36:48;5.25;;;1.10;;
66680;SDS011;53575;51.366;12.350;2022-09-27T03:39:13;1.70;;;1.05;;
66680;SDS011;53575;51.366;12.350;2022-09-27T03:41:39;1.15;;;0.93;;
66680;SDS011;53575;51.366;12.350;2022-09-27T03:44:05;1.40;;;1.00;;
66680;SDS011;53575;51.366;12.350;2022-09-27T03:46:30;2.17;;;1.02;;
66680;SDS011;53575;51.366;12.350;2022-09-27T03:48:56;2.15;;;1.17;;
66680;SDS011;53575;51.366;12.350;2022-09-27T03:51:21;2.65;;;1.00;;
66680;SDS011;53575;51.366;12.350;2022-09-27T03:53:46;1.75;;;1.02;;
66680;SDS011;53575;51.366;12.350;2022-09-27T03:56:12;1.83;;;1.17;;
66680;SDS011;53575;51.366;12.350;2022-09-27T03:58:38;1.75;;;0.90;;
66680;SDS011;53575;51.366;12.350;2022-09-27T04:01:03;2.40;;;1.20;;
66680;SDS011;53575;51.366;12.350;2022-09-27T04:03:28;1.13;;;0.98;;
66680;SDS011;53575;51.366;12.350;2022-09-27T04:05:54;1.88;;;1.30;;
66680;SDS011;53575;51.366;12.350;2022-09-27T04:08:19;3.55;;;1.10;;
66680;SDS011;53575;51.366;12.350;2022-09-27T04:10:46;1.98;;;1.40;;
66680;SDS011;53575;51.366;12.350;2022-09-27T04:13:11;1.98;;;1.40;;
66680;SDS011;53575;51.366;12.350;2022-09-27T04:15:37;1.33;;;0.98;;
66680;SDS011;53575;51.366;12.350;2022-09-27T04:18:03;1.92;;;1.15;;
66680;SDS011;53575;51.366;12.350;2022-09-27T04:20:29;1.30;;;1.02;;
66680;SDS011;53575;51.366;12.350;2022-09-27T04:22:54;1.08;;;0.98;;
66680;SDS011;53575;51.366;12.350;2022-09-27T04:25:20;1.88;;;1.30;;
66680;SDS011;53575;51.366;12.350;2022-09-27T04:27:45;5.78;;;1.60;;
66680;SDS011;53575;51.366;12.350;2022-09-27T04:30:12;2.10;;;1.40;;
66680;SDS011;53575;51.366;12.350;2022-09-27T04:32:41;1.23;;;0.90;;
66680;SDS011;53575;51.366;12.350;2022-09-27T04:37:52;1.67;;;0.80;;
66680;SDS011;53575;51.366;12.350;2022-09-27T04:40:17;1.88;;;1.30;;
66680;SDS011;53575;51.366;12.350;2022-09-27T04:42:44;1.30;;;0.82;;
66680;SDS011;53575;51.366;12.350;2022-09-27T04:45:09;8.27;;;3.58;;
66680;SDS011;53575;51.366;12.350;2022-09-27T04:47:40;1.90;;;1.40;;
66680;SDS011;53575;51.366;12.350;2022-09-27T04:50:10;2.40;;;1.27;;
66680;SDS011;53575;51.366;12.350;2022-09-27T04:52:36;4.97;;;1.50;;
66680;SDS011;53575;51.366;12.350;2022-09-27T04:55:02;4.35;;;2.80;;
66680;SDS011;53575;51.366;12.350;2022-09-27T04:57:28;2.25;;;1.65;;
66680;SDS011;53575;51.366;12.350;2022-09-27T04:59:53;1.88;;;1.48;;
66680;SDS011;53575;51.366;12.350;2022-09-27T05:02:19;1.85;;;1.20;;
66680;SDS011;53575;51.366;12.350;2022-09-27T05:04:44;4.80;;;1.10;;
66680;SDS011;53575;51.366;12.350;2022-09-27T05:07:10;1.17;;;0.90;;
66680;SDS011;53575;51.366;12.350;2022-09-27T05:09:35;3.80;;;1.30;;
66680;SDS011;53575;51.366;12.350;2022-09-27T05:12:00;1.77;;;1.38;;
66680;SDS011;53575;51.366;12.350;2022-09-27T05:14:26;5.15;;;2.25;;
66680;SDS011;53575;51.366;12.350;2022-09-27T05:16:52;5.22;;;2.38;;
66680;SDS011;53575;51.366;12.350;2022-09-27T05:19:18;2.65;;;1.10;;
66680;SDS011;53575;51.366;12.350;2022-09-27T05:21:43;2.97;;;1.15;;
66680;SDS011;53575;51.366;12.350;2022-09-27T05:24:09;4.80;;;1.40;;
66680;SDS011;53575;51.366;12.350;2022-09-27T05:26:34;6.40;;;1.83;;
66680;SDS011;53575;51.366;12.350;2022-09-27T05:29:01;1.55;;;1.10;;
66680;SDS011;53575;51.366;12.350;2022-09-27T05:31:27;3.60;;;1.00;;
66680;SDS011;53575;51.366;12.350;2022-09-27T05:33:53;1.15;;;1.00;;
66680;SDS011;53575;51.366;12.350;2022-09-27T05:36:21;2.35;;;1.10;;
66680;SDS011;53575;51.366;12.350;2022-09-27T05:38:47;1.45;;;0.82;;
66680;SDS011;53575;51.366;12.350;2022-09-27T05:41:13;2.85;;;1.02;;
66680;SDS011;53575;51.366;12.350;2022-09-27T05:43:39;1.17;;;0.90;;
66680;SDS011;53575;51.366;12.350;2022-09-27T05:46:04;2.47;;;1.13;;
66680;SDS011;53575;51.366;12.350;2022-09-27T05:48:30;2.78;;;1.25;;
66680;SDS011;53575;51.366;12.350;2022-09-27T05:50:56;3.45;;;1.77;;
66680;SDS011;53575;51.366;12.350;2022-09-27T05:53:21;3.67;;;1.50;;
66680;SDS011;53575;51.366;12.350;2022-09-27T05:55:46;1.02;;;0.93;;
66680;SDS011;53575;51.366;12.350;2022-09-27T05:58:13;1.17;;;1.08;;
66680;SDS011;53575;51.366;12.350;2022-09-27T06:00:40;1.67;;;1.38;;
66680;SDS011;53575;51.366;12.350;2022-09-27T06:03:07;1.58;;;1.00;;
66680;SDS011;53575;51.366;12.350;2022-09-27T06:05:35;4.07;;;1.92;;
66680;SDS011;53575;51.366;12.350;2022-09-27T06:08:03;1.98;;;1.30;;
66680;SDS011;53575;51.366;12.350;2022-09-27T06:13:00;1.70;;;1.10;;
66680;SDS011;53575;51.366;12.350;2022-09-27T06:15:27;1.17;;;0.85;;
66680;SDS011;53575;51.366;12.350;2022-09-27T06:17:53;2.45;;;1.20;;
66680;SDS011;53575;51.366;12.350;2022-09-27T06:20:19;1.38;;;0.93;;
66680;SDS011;53575;51.366;12.350;2022-09-27T06:22:45;2.92;;;1.63;;
66680;SDS011;53575;51.366;12.350;2022-09-27T06:25:10;2.28;;;1.30;;
66680;SDS011;53575;51.366;12.350;2022-09-27T06:27:36;2.60;;;1.27;;
66680;SDS011;53575;51.366;12.350;2022-09-27T06:30:02;1.40;;;1.20;;
66680;SDS011;53575;51.366;12.350;2022-09-27T06:32:29;1.65;;;1.33;;
66680;SDS011;53575;51.366;12.350;2022-09-27T06:34:54;3.42;;;1.13;;
66680;SDS011;53575;51.366;12.350;2022-09-27T06:37:23;1.50;;;1.40;;
66680;SDS011;53575;51.366;12.350;2022-09-27T06:39:50;1.27;;;1.08;;
66680;SDS011;53575;51.366;12.350;2022-09-27T06:42:17;3.58;;;2.17;;
66680;SDS011;53575;51.366;12.350;2022-09-27T06:44:42;1.40;;;0.75;;
66680;SDS011;53575;51.366;12.350;2022-09-27T06:47:08;1.65;;;1.20;;
66680;SDS011;53575;51.366;12.350;2022-09-27T06:49:33;2.42;;;1.00;;
66680;SDS011;53575;51.366;12.350;2022-09-27T06:51:58;2.42;;;1.25;;
66680;SDS011;53575;51.366;12.350;2022-09-27T06:54:24;2.00;;;1.00;;
66680;SDS011;53575;51.366;12.350;2022-09-27T06:56:49;1.42;;;1.02;;
66680;SDS011;53575;51.366;12.350;2022-09-27T06:59:15;1.30;;;1.13;;
66680;SDS011;53575;51.366;12.350;2022-09-27T07:01:59;1.50;;;0.90;;
66680;SDS011;53575;51.366;12.350;2022-09-27T07:04:24;2.50;;;1.77;;
66680;SDS011;53575;51.366;12.350;2022-09-27T07:06:50;4.35;;;1.70;;
66680;SDS011;53575;51.366;12.350;2022-09-27T07:09:15;2.97;;;1.48;;
66680;SDS011;53575;51.366;12.350;2022-09-27T07:11:41;1.40;;;1.10;;
66680;SDS011;53575;51.366;12.350;2022-09-27T07:14:09;1.40;;;1.08;;
66680;SDS011;53575;51.366;12.350;2022-09-27T07:16:35;2.05;;;1.00;;
66680;SDS011;53575;51.366;12.350;2022-09-27T07:19:02;3.33;;;1.27;;
66680;SDS011;53575;51.366;12.350;2022-09-27T07:21:27;3.53;;;1.13;;
66680;SDS011;53575;51.366;12.350;2022-09-27T07:23:53;2.40;;;1.30;;
66680;SDS011;53575;51.366;12.350;2022-09-27T07:26:18;3.03;;;1.30;;
66680;SDS011;53575;51.366;12.350;2022-09-27T07:28:44;3.83;;;1.65;;
66680;SDS011;53575;51.366;12.350;2022-09-27T07:31:10;5.43;;;3.30;;
66680;SDS011;53575;51.366;12.350;2022-09-27T07:33:36;1.13;;;1.00;;
66680;SDS011;53575;51.366;12.350;2022-09-27T07:36:05;4.53;;;1.10;;
66680;SDS011;53575;51.366;12.350;2022-09-27T07:38:34;1.50;;;1.08;;
66680;SDS011;53575;51.366;12.350;2022-09-27T07:41:10;1.92;;;1.20;;
66680;SDS011;53575;51.366;12.350;2022-09-27T07:43:38;1.10;;;0.90;;
66680;SDS011;53575;51.366;12.350;2022-09-27T07:46:04;2.03;;;0.90;;
66680;SDS011;53575;51.366;12.350;2022-09-27T07:48:30;2.13;;;1.20;;
66680;SDS011;53575;51.366;12.350;2022-09-27T07:50:55;3.13;;;1.38;;
66680;SDS011;53575;51.366;12.350;2022-09-27T07:53:21;1.50;;;1.33;;
66680;SDS011;53575;51.366;12.350;2022-09-27T07:55:51;1.05;;;0.80;;
66680;SDS011;53575;51.366;12.350;2022-09-27T07:58:21;0.68;;;0.68;;
66680;SDS011;53575;51.366;12.350;2022-09-27T08:00:46;1.02;;;0.90;;
66680;SDS011;53575;51.366;12.350;2022-09-27T08:03:15;0.60;;;0.60;;
66680;SDS011;53575;51.366;12.350;2022-09-27T08:05:42;0.60;;;0.60;;
66680;SDS011;53575;51.366;12.350;2022-09-27T08:08:09;2.72;;;0.90;;
66680;SDS011;53575;51.366;12.350;2022-09-27T08:10:34;7.72;;;3.67;;
66680;SDS011;53575;51.366;12.350;2022-09-27T08:13:00;2.35;;;0.93;;
66680;SDS011;53575;51.366;12.350;2022-09-27T08:15:27;1.40;;;0.70;;
66680;SDS011;53575;51.366;12.350;2022-09-27T08:17:54;1.13;;;0.98;;
66680;SDS011;53575;51.366;12.350;2022-09-27T08:20:20;1.20;;;1.00;;
66680;SDS011;53575;51.366;12.350;2022-09-27T08:22:45;2.20;;;0.82;;
66680;SDS011;53575;51.366;12.350;2022-09-27T08:25:11;2.72;;;1.15;;
66680;SDS011;53575;51.366;12.350;2022-09-27T08:27:36;1.02;;;1.00;;
66680;SDS011;53575;51.366;12.350;2022-09-27T08:30:02;1.33;;;0.90;;
66680;SDS011;53575;51.366;12.350;2022-09-27T08:32:28;1.63;;;0.93;;
66680;SDS011;53575;51.366;12.350;2022-09-27T08:34:54;2.80;;;1.60;;
66680;SDS011;53575;51.366;12.350;2022-09-27T08:37:20;3.20;;;1.30;;
66680;SDS011;53575;51.366;12.350;2022-09-27T08:39:46;2.85;;;1.10;;
66680;SDS011;53575;51.366;12.350;2022-09-27T08:44:58;0.82;;;0.82;;
66680;SDS011;53575;51.366;12.350;2022-09-27T08:47:29;3.60;;;1.95;;
66680;SDS011;53575;51.366;12.350;2022-09-27T08:52:36;1.15;;;0.68;;
66680;SDS011;53575;51.366;12.350;2022-09-27T08:55:07;0.85;;;0.65;;
66680;SDS011;53575;51.366;12.350;2022-09-27T08:57:50;0.73;;;0.60;;
66680;SDS011;53575;51.366;12.350;2022-09-27T09:00:19;1.17;;;0.70;;
66680;SDS011;53575;51.366;12.350;2022-09-27T09:02:45;1.75;;;0.90;;
66680;SDS011;53575;51.366;12.350;2022-09-27T09:05:12;0.73;;;0.73;;
66680;SDS011;53575;51.366;12.350;2022-09-27T09:19:10;1.17;;;0.70;;
66680;SDS011;53575;51.366;12.350;2022-09-27T09:24:53;0.40;;;0.40;;
66680;SDS011;53575;51.366;12.350;2022-09-27T09:27:39;1.75;;;0.50;;
66680;SDS011;53575;51.366;12.350;2022-09-27T09:30:17;0.75;;;0.35;;
66680;SDS011;53575;51.366;12.350;2022-09-27T09:38:21;0.50;;;0.40;;
66680;SDS011;53575;51.366;12.350;2022-09-27T09:40:56;0.73;;;0.50;;
66680;SDS011;53575;51.366;12.350;2022-09-27T09:44:13;2.55;;;0.70;;
66680;SDS011;53575;51.366;12.350;2022-09-27T09:46:21;0.82;;;0.70;;
66680;SDS011;53575;51.366;12.350;2022-09-27T09:51:23;3.03;;;0.63;;
66680;SDS011;53575;51.366;12.350;2022-09-27T09:56:31;0.85;;;0.40;;
66680;SDS011;53575;51.366;12.350;2022-09-27T09:59:44;0.73;;;0.57;;
66680;SDS011;53575;51.366;12.350;2022-09-27T10:01:57;2.00;;;0.43;;
66680;SDS011;53575;51.366;12.350;2022-09-27T10:04:38;0.88;;;0.47;;
66680;SDS011;53575;51.366;12.350;2022-09-27T10:07:04;0.80;;;0.50;;
66680;SDS011;53575;51.366;12.350;2022-09-27T10:09:30;2.38;;;0.60;;
66680;SDS011;53575;51.366;12.350;2022-09-27T10:11:57;2.15;;;0.60;;
66680;SDS011;53575;51.366;12.350;2022-09-27T10:14:24;0.73;;;0.70;;
66680;SDS011;53575;51.366;12.350;2022-09-27T10:16:54;0.73;;;0.70;;
66680;SDS011;53575;51.366;12.350;2022-09-27T10:19:27;0.70;;;0.70;;
66680;SDS011;53575;51.366;12.350;2022-09-27T10:21:57;0.63;;;0.63;;
66680;SDS011;53575;51.366;12.350;2022-09-27T10:24:59;1.80;;;0.70;;
66680;SDS011;53575;51.366;12.350;2022-09-27T10:27:27;5.72;;;1.08;;
66680;SDS011;53575;51.366;12.350;2022-09-27T10:30:04;4.78;;;2.75;;
66680;SDS011;53575;51.366;12.350;2022-09-27T10:32:32;1.30;;;0.80;;
66680;SDS011;53575;51.366;12.350;2022-09-27T10:37:45;2.67;;;1.13;;
66680;SDS011;53575;51.366;12.350;2022-09-27T10:40:27;1.35;;;0.90;;
66680;SDS011;53575;51.366;12.350;2022-09-27T10:42:54;0.90;;;0.70;;
66680;SDS011;53575;51.366;12.350;2022-09-27T10:47:48;2.85;;;0.77;;
66680;SDS011;53575;51.366;12.350;2022-09-27T10:50:20;0.98;;;0.90;;
66680;SDS011;53575;51.366;12.350;2022-09-27T10:52:59;2.05;;;0.82;;
66680;SDS011;53575;51.366;12.350;2022-09-27T10:55:30;1.50;;;1.27;;
66680;SDS011;53575;51.366;12.350;2022-09-27T10:57:58;1.60;;;1.30;;
66680;SDS011;53575;51.366;12.350;2022-09-27T11:00:25;2.40;;;1.20;;
66680;SDS011;53575;51.366;12.350;2022-09-27T11:03:03;2.80;;;1.10;;
66680;SDS011;53575;51.366;12.350;2022-09-27T11:05:33;2.72;;;1.00;;
66680;SDS011;53575;51.366;12.350;2022-09-27T11:08:02;0.85;;;0.68;;
66680;SDS011;53575;51.366;12.350;2022-09-27T11:13:32;0.90;;;0.80;;
66680;SDS011;53575;51.366;12.350;2022-09-27T11:27:29;2.35;;;0.95;;
66680;SDS011;53575;51.366;12.350;2022-09-27T11:40:38;1.98;;;0.95;;
66680;SDS011;53575;51.366;12.350;2022-09-27T11:54:20;1.42;;;0.98;;
66680;SDS011;53575;51.366;12.350;2022-09-27T11:59:33;0.70;;;0.68;;
66680;SDS011;53575;51.366;12.350;2022-09-27T12:10:17;2.10;;;0.73;;
66680;SDS011;53575;51.366;12.350;2022-09-27T12:12:45;0.68;;;0.68;;
66680;SDS011;53575;51.366;12.350;2022-09-27T12:15:23;0.75;;;0.70;;
66680;SDS011;53575;51.366;12.350;2022-09-27T12:17:58;1.73;;;0.75;;
66680;SDS011;53575;51.366;12.350;2022-09-27T12:20:45;2.78;;;0.77;;
66680;SDS011;53575;51.366;12.350;2022-09-27T12:23:19;1.27;;;0.80;;
66680;SDS011;53575;51.366;12.350;2022-09-27T12:25:48;2.58;;;1.17;;
66680;SDS011;53575;51.366;12.350;2022-09-27T12:28:36;4.68;;;1.13;;
66680;SDS011;53575;51.366;12.350;2022-09-27T12:31:15;4.25;;;1.50;;
66680;SDS011;53575;51.366;12.350;2022-09-27T12:33:52;1.95;;;1.05;;
66680;SDS011;53575;51.366;12.350;2022-09-27T12:36:23;5.82;;;1.92;;
66680;SDS011;53575;51.366;12.350;2022-09-27T12:41:38;1.88;;;1.10;;
66680;SDS011;53575;51.366;12.350;2022-09-27T12:44:11;2.08;;;0.90;;
66680;SDS011;53575;51.366;12.350;2022-09-27T12:47:00;1.05;;;0.80;;
66680;SDS011;53575;51.366;12.350;2022-09-27T12:49:29;1.25;;;0.80;;
66680;SDS011;53575;51.366;12.350;2022-09-27T12:52:15;1.35;;;0.90;;
66680;SDS011;53575;51.366;12.350;2022-09-27T12:54:53;4.03;;;0.90;;
66680;SDS011;53575;51.366;12.350;2022-09-27T12:57:50;2.35;;;1.13;;
66680;SDS011;53575;51.366;12.350;2022-09-27T13:01:12;0.80;;;0.80;;
66680;SDS011;53575;51.366;12.350;2022-09-27T13:04:11;1.55;;;0.88;;
66680;SDS011;53575;51.366;12.350;2022-09-27T13:10:05;2.70;;;1.40;;
66680;SDS011;53575;51.366;12.350;2022-09-27T13:12:47;0.70;;;0.70;;
66680;SDS011;53575;51.366;12.350;2022-09-27T13:15:26;0.80;;;0.75;;
66680;SDS011;53575;51.366;12.350;2022-09-27T13:17:56;1.23;;;0.90;;
66680;SDS011;53575;51.366;12.350;2022-09-27T13:22:52;0.70;;;0.70;;
66680;SDS011;53575;51.366;12.350;2022-09-27T13:30:52;1.13;;;1.00;;
66680;SDS011;53575;51.366;12.350;2022-09-27T13:47:19;1.08;;;0.98;;
66680;SDS011;53575;51.366;12.350;2022-09-27T13:49:56;2.50;;;1.05;;
66680;SDS011;53575;51.366;12.350;2022-09-27T13:52:34;1.30;;;1.20;;
66680;SDS011;53575;51.366;12.350;2022-09-27T13:55:03;2.20;;;1.20;;
66680;SDS011;53575;51.366;12.350;2022-09-27T13:57:58;2.08;;;1.30;;
66680;SDS011;53575;51.366;12.350;2022-09-27T14:00:38;5.75;;;1.45;;
66680;SDS011;53575;51.366;12.350;2022-09-27T14:05:56;1.83;;;1.48;;
66680;SDS011;53575;51.366;12.350;2022-09-27T14:08:43;3.33;;;1.30;;
66680;SDS011;53575;51.366;12.350;2022-09-27T14:11:10;2.03;;;1.13;;
66680;SDS011;53575;51.366;12.350;2022-09-27T14:13:38;1.20;;;1.10;;
66680;SDS011;53575;51.366;12.350;2022-09-27T14:16:05;1.85;;;1.10;;
66680;SDS011;53575;51.366;12.350;2022-09-27T14:18:32;3.95;;;1.30;;
66680;SDS011;53575;51.366;12.350;2022-09-27T14:23:38;0.88;;;0.88;;
66680;SDS011;53575;51.366;12.350;2022-09-27T14:26:04;4.78;;;1.27;;
66680;SDS011;53575;51.366;12.350;2022-09-27T14:28:30;1.63;;;1.42;;
66680;SDS011;53575;51.366;12.350;2022-09-27T14:31:05;2.22;;;1.13;;
66680;SDS011;53575;51.366;12.350;2022-09-27T14:33:32;0.95;;;0.95;;
66680;SDS011;53575;51.366;12.350;2022-09-27T14:35:58;1.08;;;0.70;;
66680;SDS011;53575;51.366;12.350;2022-09-27T14:38:43;0.43;;;0.43;;
66680;SDS011;53575;51.366;12.350;2022-09-27T14:41:09;1.77;;;0.80;;
66680;SDS011;53575;51.366;12.350;2022-09-27T14:43:35;1.25;;;0.68;;
66680;SDS011;53575;51.366;12.350;2022-09-27T14:46:20;5.30;;;0.90;;
66680;SDS011;53575;51.366;12.350;2022-09-27T14:48:52;1.35;;;0.70;;
66680;SDS011;53575;51.366;12.350;2022-09-27T14:51:25;0.98;;;0.63;;
66680;SDS011;53575;51.366;12.350;2022-09-27T14:53:56;1.20;;;0.70;;
66680;SDS011;53575;51.366;12.350;2022-09-27T14:56:28;1.88;;;0.80;;
66680;SDS011;53575;51.366;12.350;2022-09-27T14:59:03;0.63;;;0.45;;
66680;SDS011;53575;51.366;12.350;2022-09-27T15:01:35;0.77;;;0.43;;
66680;SDS011;53575;51.366;12.350;2022-09-27T15:04:04;0.80;;;0.47;;
66680;SDS011;53575;51.366;12.350;2022-09-27T15:06:34;0.75;;;0.50;;
66680;SDS011;53575;51.366;12.350;2022-09-27T15:09:01;0.95;;;0.80;;
66680;SDS011;53575;51.366;12.350;2022-09-27T15:11:27;1.20;;;0.85;;
66680;SDS011;53575;51.366;12.350;2022-09-27T15:13:57;2.05;;;0.80;;
66680;SDS011;53575;51.366;12.350;2022-09-27T15:16:25;3.40;;;2.10;;
66680;SDS011;53575;51.366;12.350;2022-09-27T15:21:41;2.97;;;0.90;;
66680;SDS011;53575;51.366;12.350;2022-09-27T15:24:32;1.58;;;0.70;;
66680;SDS011;53575;51.366;12.350;2022-09-27T15:27:14;1.92;;;0.80;;
66680;SDS011;53575;51.366;12.350;2022-09-27T15:29:46;1.55;;;1.00;;
66680;SDS011;53575;51.366;12.350;2022-09-27T15:32:18;1.77;;;0.80;;
66680;SDS011;53575;51.366;12.350;2022-09-27T15:34:45;0.95;;;0.70;;
66680;SDS011;53575;51.366;12.350;2022-09-27T15:37:25;1.98;;;0.90;;
66680;SDS011;53575;51.366;12.350;2022-09-27T15:40:00;1.20;;;0.90;;
66680;SDS011;53575;51.366;12.350;2022-09-27T15:42:53;1.13;;;0.90;;
66680;SDS011;53575;51.366;12.350;2022-09-27T15:45:31;1.60;;;1.13;;
66680;SDS011;53575;51.366;12.350;2022-09-27T15:48:16;2.33;;;0.70;;
66680;SDS011;53575;51.366;12.350;2022-09-27T15:50:45;1.70;;;0.73;;
66680;SDS011;53575;51.366;12.350;2022-09-27T15:53:12;1.00;;;0.77;;
66680;SDS011;53575;51.366;12.350;2022-09-27T15:55:57;1.02;;;0.95;;
66680;SDS011;53575;51.366;12.350;2022-09-27T15:58:23;1.05;;;0.77;;
66680;SDS011;53575;51.366;12.350;2022-09-27T16:00:50;3.10;;;0.90;;
66680;SDS011;53575;51.366;12.350;2022-09-27T16:03:16;3.40;;;1.52;;
66680;SDS011;53575;51.366;12.350;2022-09-27T16:05:41;2.17;;;1.40;;
66680;SDS011;53575;51.366;12.350;2022-09-27T16:08:08;2.65;;;1.10;;
66680;SDS011;53575;51.366;12.350;2022-09-27T16:10:35;3.47;;;1.77;;
66680;SDS011;53575;51.366;12.350;2022-09-27T16:13:03;2.58;;;1.33;;
66680;SDS011;53575;51.366;12.350;2022-09-27T16:15:28;3.15;;;1.45;;
66680;SDS011;53575;51.366;12.350;2022-09-27T16:17:55;2.00;;;1.20;;
66680;SDS011;53575;51.366;12.350;2022-09-27T16:20:22;2.08;;;1.38;;
66680;SDS011;53575;51.366;12.350;2022-09-27T16:22:51;3.45;;;1.08;;
66680;SDS011;53575;51.366;12.350;2022-09-27T16:25:17;1.15;;;1.00;;
66680;SDS011;53575;51.366;12.350;2022-09-27T16:27:44;2.03;;;1.27;;
66680;SDS011;53575;51.366;12.350;2022-09-27T16:30:10;1.40;;;1.30;;
66680;SDS011;53575;51.366;12.350;2022-09-27T16:32:39;3.42;;;1.30;;
66680;SDS011;53575;51.366;12.350;2022-09-27T16:35:06;3.15;;;1.60;;
66680;SDS011;53575;51.366;12.350;2022-09-27T16:37:32;3.45;;;1.70;;
66680;SDS011;53575;51.366;12.350;2022-09-27T16:39:58;2.55;;;1.40;;
66680;SDS011;53575;51.366;12.350;2022-09-27T16:42:24;2.63;;;1.30;;
66680;SDS011;53575;51.366;12.350;2022-09-27T16:44:51;44.45;;;30.67;;
66680;SDS011;53575;51.366;12.350;2022-09-27T16:47:17;79.00;;;45.88;;
66680;SDS011;53575;51.366;12.350;2022-09-27T16:49:43;52.03;;;31.08;;
66680;SDS011;53575;51.366;12.350;2022-09-27T16:52:28;11.02;;;9.07;;
66680;SDS011;53575;51.366;12.350;2022-09-27T16:54:55;4.82;;;2.22;;
66680;SDS011;53575;51.366;12.350;2022-09-27T16:57:21;2.15;;;1.67;;
66680;SDS011;53575;51.366;12.350;2022-09-27T16:59:46;7.60;;;4.43;;
66680;SDS011;53575;51.366;12.350;2022-09-27T17:02:12;1.83;;;1.50;;
66680;SDS011;53575;51.366;12.350;2022-09-27T17:04:38;2.50;;;1.60;;
66680;SDS011;53575;51.366;12.350;2022-09-27T17:07:04;4.80;;;1.90;;
66680;SDS011;53575;51.366;12.350;2022-09-27T17:09:29;3.83;;;1.73;;
66680;SDS011;53575;51.366;12.350;2022-09-27T17:11:55;9.25;;;4.70;;
66680;SDS011;53575;51.366;12.350;2022-09-27T17:14:20;4.97;;;3.75;;
66680;SDS011;53575;51.366;12.350;2022-09-27T17:16:49;7.90;;;2.97;;
66680;SDS011;53575;51.366;12.350;2022-09-27T17:19:15;3.67;;;2.28;;
66680;SDS011;53575;51.366;12.350;2022-09-27T17:21:43;3.22;;;1.95;;
66680;SDS011;53575;51.366;12.350;2022-09-27T17:24:09;1.85;;;1.70;;
66680;SDS011;53575;51.366;12.350;2022-09-27T17:26:35;2.83;;;2.03;;
66680;SDS011;53575;51.366;12.350;2022-09-27T17:29:04;150.48;;;66.80;;
66680;SDS011;53575;51.366;12.350;2022-09-27T17:31:30;507.48;;;191.35;;
66680;SDS011;53575;51.366;12.350;2022-09-27T17:33:58;417.33;;;128.65;;
66680;SDS011;53575;51.366;12.350;2022-09-27T17:36:25;53.63;;;15.75;;